createdAt,value
2023-05-14T00:01:04.245Z,53.50
2023-05-14T00:03:30.761Z,53.50
2023-05-14T00:05:57.337Z,53.10
2023-05-14T00:08:23.862Z,53.30
2023-05-14T00:10:50.355Z,53.40
2023-05-14T00:13:16.843Z,52.80
2023-05-14T00:15:43.389Z,53.40
2023-05-14T00:18:09.931Z,53.30
2023-05-14T00:20:36.398Z,53.30
2023-05-14T00:23:02.917Z,52.80
2023-05-14T00:25:29.375Z,53.30
2023-05-14T00:27:55.852Z,53.30
2023-05-14T00:30:22.588Z,53.40
2023-05-14T00:32:49.358Z,52.70
2023-05-14T00:35:15.925Z,52.90
2023-05-14T00:37:42.394Z,53.40
2023-05-14T00:40:08.860Z,53.40
2023-05-14T00:42:35.326Z,52.80
2023-05-14T00:45:01.826Z,53.50
2023-05-14T00:47:28.292Z,53.50
2023-05-14T00:49:54.764Z,53.50
2023-05-14T00:52:21.214Z,53.30
2023-05-14T00:54:47.686Z,53.60
2023-05-14T00:57:14.197Z,53.50
2023-05-14T00:59:40.655Z,53.00
2023-05-14T01:02:07.113Z,52.90
2023-05-14T01:04:33.572Z,53.20
2023-05-14T01:07:00.050Z,53.50
2023-05-14T01:09:26.499Z,53.50
2023-05-14T01:11:52.962Z,53.20
2023-05-14T01:14:19.434Z,53.40
2023-05-14T01:16:45.997Z,53.50
2023-05-14T01:19:12.548Z,53.10
2023-05-14T01:21:39.061Z,53.60
2023-05-14T01:24:05.529Z,52.90
2023-05-14T01:26:32.027Z,53.50
2023-05-14T01:28:58.572Z,53.50
2023-05-14T01:31:25.172Z,53.50
2023-05-14T01:33:51.696Z,53.00
2023-05-14T01:36:18.169Z,53.70
2023-05-14T01:38:44.667Z,53.50
2023-05-14T01:41:11.161Z,53.10
2023-05-14T01:43:37.702Z,53.10
2023-05-14T01:46:04.314Z,53.20
2023-05-14T01:48:30.825Z,53.20
2023-05-14T01:50:57.286Z,53.00
2023-05-14T01:53:23.719Z,53.40
2023-05-14T01:55:50.204Z,53.40
2023-05-14T01:58:16.696Z,53.60
2023-05-14T02:00:43.187Z,53.30
2023-05-14T02:03:09.711Z,53.70
2023-05-14T02:05:36.246Z,53.20
2023-05-14T02:08:02.747Z,53.60
2023-05-14T02:10:29.207Z,53.60
2023-05-14T02:12:55.646Z,53.10
2023-05-14T02:15:22.129Z,53.40
2023-05-14T02:17:48.651Z,53.20
2023-05-14T02:20:15.170Z,53.50
2023-05-14T02:22:41.666Z,53.10
2023-05-14T02:25:08.155Z,53.40
2023-05-14T02:27:34.641Z,53.10
2023-05-14T02:30:01.170Z,53.10
2023-05-14T02:32:27.806Z,53.10
2023-05-14T02:34:54.348Z,52.90
2023-05-14T02:37:20.903Z,53.30
2023-05-14T02:39:47.390Z,53.00
2023-05-14T02:42:13.833Z,53.10
2023-05-14T02:44:40.333Z,53.00
2023-05-14T02:47:06.849Z,53.40
2023-05-14T02:49:33.350Z,53.10
2023-05-14T02:51:59.834Z,53.30
2023-05-14T02:54:26.307Z,53.00
2023-05-14T02:56:52.765Z,53.30
2023-05-14T02:59:19.297Z,52.90
2023-05-14T03:01:46.152Z,53.30
2023-05-14T03:04:13.071Z,52.90
2023-05-14T03:06:39.571Z,52.90
2023-05-14T03:09:06.062Z,53.10
2023-05-14T03:11:32.573Z,52.80
2023-05-14T03:13:59.028Z,53.40
2023-05-14T03:16:25.511Z,53.50
2023-05-14T03:18:52.071Z,52.90
2023-05-14T03:21:18.570Z,53.30
2023-05-14T03:23:45.069Z,52.90
2023-05-14T03:26:11.521Z,53.00
2023-05-14T03:28:37.999Z,53.20
2023-05-14T03:31:04.462Z,52.80
2023-05-14T03:33:31.001Z,53.40
2023-05-14T03:35:57.444Z,52.90
2023-05-14T03:38:23.970Z,53.00
2023-05-14T03:40:50.483Z,53.10
2023-05-14T03:43:16.928Z,53.40
2023-05-14T03:45:43.404Z,53.10
2023-05-14T03:48:10.009Z,53.10
2023-05-14T03:50:36.576Z,53.40
2023-05-14T03:53:03.053Z,52.30
2023-05-14T03:55:29.539Z,52.10
2023-05-14T03:57:55.993Z,52.80
2023-05-14T04:00:22.673Z,53.10
2023-05-14T04:02:49.390Z,53.00
2023-05-14T04:05:15.917Z,53.40
2023-05-14T04:07:42.400Z,52.90
2023-05-14T04:10:08.897Z,53.30
2023-05-14T04:12:35.417Z,53.20
2023-05-14T04:15:01.903Z,53.10
2023-05-14T04:17:28.454Z,53.20
2023-05-14T04:19:54.987Z,53.20
2023-05-14T04:22:21.509Z,53.30
2023-05-14T04:24:47.963Z,53.30
2023-05-14T04:27:14.433Z,53.30
2023-05-14T04:29:40.926Z,53.00
2023-05-14T04:32:07.944Z,53.40
2023-05-14T04:34:34.621Z,52.80
2023-05-14T04:37:01.118Z,53.00
2023-05-14T04:39:27.605Z,51.80
2023-05-14T04:41:54.173Z,53.00
2023-05-14T04:44:20.653Z,52.80
2023-05-14T04:46:47.136Z,52.80
2023-05-14T04:49:13.598Z,53.00
2023-05-14T04:51:40.043Z,53.20
2023-05-14T04:54:06.543Z,52.90
2023-05-14T04:56:33.038Z,53.10
2023-05-14T04:58:59.511Z,52.50
2023-05-14T05:01:26.058Z,52.80
2023-05-14T05:03:52.741Z,52.90
2023-05-14T05:06:19.334Z,52.50
2023-05-14T05:08:45.859Z,53.10
2023-05-14T05:11:12.317Z,52.90
2023-05-14T05:13:38.803Z,53.00
2023-05-14T05:16:05.360Z,53.20
2023-05-14T05:18:31.910Z,52.80
2023-05-14T05:23:25.418Z,53.70
2023-05-14T05:25:51.899Z,53.40
2023-05-14T05:28:18.366Z,53.10
2023-05-14T05:30:44.823Z,53.60
2023-05-14T05:33:11.335Z,52.80
2023-05-14T05:35:37.849Z,52.80
2023-05-14T05:38:04.343Z,52.70
2023-05-14T05:40:30.853Z,54.00
2023-05-14T05:42:57.316Z,53.40
2023-05-14T05:45:23.762Z,52.90
2023-05-14T05:47:50.372Z,52.90
2023-05-14T05:50:17.973Z,53.30
2023-05-14T05:52:45.988Z,52.90
2023-05-14T05:55:12.464Z,53.00
2023-05-14T05:57:38.991Z,52.70
2023-05-14T06:00:05.540Z,53.00
2023-05-14T06:02:32.143Z,53.40
2023-05-14T06:04:58.840Z,53.70
2023-05-14T06:07:25.353Z,53.60
2023-05-14T06:09:51.913Z,54.00
2023-05-14T06:12:18.519Z,54.00
2023-05-14T06:14:44.993Z,53.70
2023-05-14T06:17:11.525Z,53.10
2023-05-14T06:19:38.018Z,53.60
2023-05-14T06:22:04.556Z,53.10
2023-05-14T06:24:31.079Z,52.80
2023-05-14T06:26:57.613Z,53.20
2023-05-14T06:29:24.088Z,52.90
2023-05-14T06:31:50.635Z,53.00
2023-05-14T06:34:17.164Z,53.70
2023-05-14T06:36:43.641Z,54.00
2023-05-14T06:39:10.142Z,54.40
2023-05-14T06:41:36.616Z,54.30
2023-05-14T06:44:03.086Z,54.60
2023-05-14T06:46:29.557Z,54.50
2023-05-14T06:48:58.092Z,54.40
2023-05-14T06:51:25.854Z,54.00
2023-05-14T06:53:52.327Z,54.40
2023-05-14T06:56:18.901Z,54.50
2023-05-14T06:58:45.327Z,55.10
2023-05-14T07:01:11.820Z,54.90
2023-05-14T07:03:38.331Z,54.80
2023-05-14T07:06:04.848Z,54.50
2023-05-14T07:08:31.341Z,54.60
2023-05-14T07:10:57.849Z,53.60
2023-05-14T07:13:24.958Z,53.90
2023-05-14T07:15:52.803Z,54.10
2023-05-14T07:18:19.271Z,53.70
2023-05-14T07:20:45.746Z,53.20
2023-05-14T07:23:12.208Z,53.30
2023-05-14T07:25:38.686Z,54.00
2023-05-14T07:28:05.198Z,53.80
2023-05-14T07:30:31.721Z,54.00
2023-05-14T07:32:58.312Z,53.80
2023-05-14T07:35:24.864Z,54.10
2023-05-14T07:37:51.331Z,54.20
2023-05-14T07:40:17.775Z,54.30
2023-05-14T07:42:44.275Z,53.40
2023-05-14T07:47:37.845Z,53.20
2023-05-14T07:50:04.364Z,53.40
2023-05-14T07:54:57.837Z,53.10
2023-05-14T07:57:24.290Z,53.00
2023-05-14T07:59:50.820Z,53.10
2023-05-14T08:04:44.402Z,53.00
2023-05-14T08:07:10.909Z,53.70
2023-05-14T08:09:37.412Z,53.20
2023-05-14T08:12:03.924Z,53.70
2023-05-14T08:14:30.365Z,53.90
2023-05-14T08:16:56.844Z,53.60
2023-05-14T08:19:23.356Z,54.10
2023-05-14T08:21:49.817Z,53.70
2023-05-14T08:24:16.297Z,53.50
2023-05-14T08:26:42.782Z,53.40
2023-05-14T08:29:10.679Z,53.90
2023-05-14T08:31:37.704Z,53.70
2023-05-14T08:34:04.158Z,53.80
2023-05-14T08:36:30.640Z,53.50
2023-05-14T08:38:57.080Z,53.80
2023-05-14T08:41:23.550Z,53.50
2023-05-14T08:43:50.043Z,54.00
2023-05-14T08:46:16.509Z,54.30
2023-05-14T08:48:43.016Z,53.40
2023-05-14T08:53:36.565Z,53.50
2023-05-14T08:56:03.038Z,53.70
2023-05-14T08:58:29.553Z,54.10
2023-05-14T09:00:56.009Z,53.90
2023-05-14T09:03:22.556Z,55.00
2023-05-14T09:05:49.082Z,54.60
2023-05-14T09:08:15.600Z,54.50
2023-05-14T09:10:42.088Z,54.00
2023-05-14T09:13:08.610Z,54.50
2023-05-14T09:15:35.123Z,54.10
2023-05-14T09:18:01.652Z,54.00
2023-05-14T09:20:28.452Z,53.90
2023-05-14T09:22:55.374Z,53.80
2023-05-14T09:25:21.861Z,54.30
2023-05-14T09:27:48.375Z,54.00
2023-05-14T09:30:14.867Z,54.40
2023-05-14T09:32:41.438Z,53.90
2023-05-14T09:35:07.936Z,54.60
2023-05-14T09:37:34.419Z,54.10
2023-05-14T09:40:00.933Z,54.20
2023-05-14T09:42:27.435Z,54.20
2023-05-14T09:44:53.923Z,53.70
2023-05-14T09:47:20.431Z,54.30
2023-05-14T09:49:46.920Z,54.00
2023-05-14T09:52:13.402Z,54.50
2023-05-14T09:54:39.894Z,54.50
2023-05-14T09:57:06.382Z,55.10
2023-05-14T09:59:32.907Z,55.10
2023-05-14T10:01:59.432Z,55.10
2023-05-14T10:04:25.979Z,55.10
2023-05-14T10:06:52.479Z,55.00
2023-05-14T10:09:18.926Z,55.50
2023-05-14T10:11:45.416Z,54.80
2023-05-14T10:14:11.907Z,54.60
2023-05-14T10:16:38.534Z,55.20
2023-05-14T10:19:05.225Z,54.80
2023-05-14T10:21:31.820Z,54.50
2023-05-14T10:23:58.328Z,55.40
2023-05-14T10:26:24.784Z,54.50
2023-05-14T10:28:51.228Z,55.30
2023-05-14T10:31:17.744Z,56.10
2023-05-14T10:33:44.262Z,56.20
2023-05-14T10:36:10.769Z,56.10
2023-05-14T10:38:37.251Z,55.60
2023-05-14T10:41:03.770Z,56.70
2023-05-14T10:43:30.261Z,55.50
2023-05-14T10:45:56.752Z,55.60
2023-05-14T10:48:23.279Z,55.50
2023-05-14T10:50:49.890Z,56.00
2023-05-14T10:53:16.373Z,55.60
2023-05-14T10:55:42.859Z,55.30
2023-05-14T10:58:09.295Z,55.90
2023-05-14T11:00:35.770Z,55.60
2023-05-14T11:03:02.278Z,55.90
2023-05-14T11:05:28.816Z,55.20
2023-05-14T11:07:55.267Z,55.50
2023-05-14T11:10:21.992Z,55.10
2023-05-14T11:12:48.765Z,54.00
2023-05-14T11:15:15.237Z,54.40
2023-05-14T11:17:41.778Z,54.30
2023-05-14T11:20:08.308Z,55.00
2023-05-14T11:22:34.796Z,54.70
2023-05-14T11:25:01.268Z,55.10
2023-05-14T11:33:08.788Z,55.10
2023-05-14T11:35:38.283Z,54.40
2023-05-14T11:44:02.545Z,53.90
2023-05-14T11:49:31.962Z,54.20
2023-05-14T12:06:00.567Z,53.40
2023-05-14T12:19:42.677Z,52.80
2023-05-14T12:30:33.576Z,53.00
2023-05-14T12:33:24.322Z,52.90
2023-05-14T12:36:20.262Z,53.50
2023-05-14T12:38:50.928Z,53.60
2023-05-14T12:41:23.321Z,53.50
2023-05-14T12:43:49.806Z,53.00
2023-05-14T12:46:19.762Z,54.00
2023-05-14T12:51:30.131Z,54.50
2023-05-14T12:53:59.434Z,53.60
2023-05-14T12:56:37.801Z,53.10
2023-05-14T13:24:08.726Z,53.20
2023-05-14T13:26:42.475Z,54.40
2023-05-14T13:31:57.284Z,53.40
2023-05-14T13:34:38.864Z,53.30
2023-05-14T13:40:04.121Z,53.80
2023-05-14T13:42:36.674Z,53.20
2023-05-14T13:56:19.984Z,53.40
2023-05-14T13:58:49.368Z,53.80
2023-05-14T14:04:22.323Z,54.40
2023-05-14T14:15:10.784Z,53.40
2023-05-14T14:23:12.493Z,53.20
2023-05-14T14:25:38.984Z,53.70
2023-05-14T14:28:25.346Z,53.70
2023-05-14T14:33:35.827Z,53.00
2023-05-14T14:36:14.164Z,53.10
2023-05-14T14:38:50.159Z,53.40
2023-05-14T14:44:30.947Z,53.40
2023-05-14T14:46:57.482Z,53.20
2023-05-14T14:49:24.020Z,53.80
2023-05-14T14:51:50.884Z,53.70
2023-05-14T14:57:15.768Z,53.50
2023-05-14T15:02:37.433Z,53.70
2023-05-14T15:10:48.335Z,53.70
2023-05-14T15:13:14.843Z,53.60
2023-05-14T15:15:53.519Z,53.70
2023-05-14T15:18:23.806Z,53.40
2023-05-14T15:20:50.239Z,53.50
2023-05-14T15:23:16.735Z,53.80
2023-05-14T15:25:45.888Z,53.20
2023-05-14T15:28:27.555Z,53.50
2023-05-14T15:34:00.159Z,53.60
2023-05-14T15:44:41.806Z,53.30
2023-05-14T15:47:08.334Z,53.60
2023-05-14T15:55:10.880Z,53.20
2023-05-14T15:57:56.462Z,52.90
2023-05-14T16:00:47.339Z,53.30
2023-05-14T16:05:37.452Z,53.30
2023-05-14T16:08:03.967Z,53.20
2023-05-14T16:10:30.460Z,53.70
2023-05-14T16:12:56.967Z,53.30
2023-05-14T16:15:23.466Z,53.50
2023-05-14T16:17:49.991Z,53.00
2023-05-14T16:20:16.626Z,53.60
2023-05-14T16:22:43.160Z,53.70
2023-05-14T16:25:09.660Z,53.30
2023-05-14T16:27:36.530Z,53.40
2023-05-14T16:30:03.111Z,54.60
2023-05-14T16:34:56.706Z,54.00
2023-05-14T16:37:23.462Z,54.10
2023-05-14T16:39:50.013Z,54.50
2023-05-14T16:42:16.539Z,54.40
2023-05-14T16:44:43.049Z,54.60
2023-05-14T16:47:09.611Z,54.50
2023-05-14T16:49:36.146Z,54.60
2023-05-14T16:54:29.959Z,55.10
2023-05-14T16:56:56.492Z,55.30
2023-05-14T16:59:22.987Z,55.50
2023-05-14T17:01:49.518Z,56.20
2023-05-14T17:04:16.127Z,56.50
2023-05-14T17:06:42.659Z,56.20
2023-05-14T17:09:09.166Z,56.30
2023-05-14T17:11:35.650Z,55.50
2023-05-14T17:16:29.225Z,54.70
2023-05-14T17:18:55.788Z,55.80
2023-05-14T17:21:22.328Z,55.10
2023-05-14T17:23:48.846Z,55.10
2023-05-14T17:28:42.307Z,55.20
2023-05-14T17:31:08.897Z,55.20
2023-05-14T17:33:35.432Z,54.80
2023-05-14T17:36:01.957Z,55.50
2023-05-14T17:38:28.461Z,55.40
2023-05-14T17:40:54.957Z,54.90
2023-05-14T17:43:21.414Z,54.80
2023-05-14T17:48:19.417Z,55.30
2023-05-14T17:50:45.903Z,54.50
2023-05-14T17:53:12.420Z,54.90
2023-05-14T17:55:38.940Z,55.50
2023-05-14T17:58:05.401Z,55.10
2023-05-14T18:00:31.890Z,54.90
2023-05-14T18:02:58.467Z,54.60
2023-05-14T18:05:25.151Z,55.30
2023-05-14T18:07:51.794Z,54.90
2023-05-14T18:10:18.273Z,54.60
2023-05-14T18:12:44.772Z,54.50
2023-05-14T18:15:11.274Z,54.80
2023-05-14T18:17:37.802Z,55.20
2023-05-14T18:20:04.336Z,54.60
2023-05-14T18:22:30.813Z,54.90
2023-05-14T18:24:57.298Z,54.90
2023-05-14T18:27:23.781Z,54.90
2023-05-14T18:29:50.279Z,54.80
2023-05-14T18:32:16.738Z,54.50
2023-05-14T18:34:43.207Z,54.50
2023-05-14T18:37:09.703Z,55.00
2023-05-14T18:39:36.266Z,54.30
2023-05-14T18:42:02.772Z,53.90
2023-05-14T18:44:29.444Z,54.10
2023-05-14T18:46:55.944Z,54.20
2023-05-14T18:49:22.389Z,53.70
2023-05-14T18:51:48.919Z,54.10
2023-05-14T18:54:15.408Z,54.50
2023-05-14T18:56:41.948Z,54.90
2023-05-14T18:59:08.407Z,54.20
2023-05-14T19:01:34.958Z,54.30
2023-05-14T19:04:03.834Z,54.10
2023-05-14T19:06:31.750Z,54.20
2023-05-14T19:11:25.267Z,54.10
2023-05-14T19:13:51.792Z,54.00
2023-05-14T19:16:18.331Z,54.00
2023-05-14T19:18:44.886Z,54.10
2023-05-14T19:21:11.406Z,54.70
2023-05-14T19:23:37.891Z,53.70
2023-05-14T19:26:04.377Z,54.00
2023-05-14T19:28:32.757Z,53.60
2023-05-14T19:33:26.281Z,53.70
2023-05-14T19:35:52.787Z,54.30
2023-05-14T19:38:19.284Z,53.50
2023-05-14T19:40:45.776Z,53.50
2023-05-14T19:43:12.246Z,53.90
2023-05-14T19:48:05.886Z,53.30
2023-05-14T19:50:32.521Z,53.50
2023-05-14T19:52:59.017Z,53.60
2023-05-14T19:55:25.644Z,53.50
2023-05-14T19:57:52.313Z,53.80
2023-05-14T20:00:18.825Z,53.50
2023-05-14T20:02:45.377Z,54.00
2023-05-14T20:05:11.968Z,53.50
2023-05-14T20:07:40.246Z,54.20
2023-05-14T20:10:07.053Z,54.00
2023-05-14T20:12:33.821Z,53.60
2023-05-14T20:15:00.360Z,53.70
2023-05-14T20:17:26.901Z,53.70
2023-05-14T20:22:20.547Z,54.20
2023-05-14T20:24:47.101Z,54.40
2023-05-14T20:27:13.607Z,54.30
2023-05-14T20:32:07.137Z,54.30
2023-05-14T20:34:33.653Z,54.30
2023-05-14T20:37:00.162Z,54.50
2023-05-14T20:39:26.691Z,54.20
2023-05-14T20:41:53.148Z,54.60
2023-05-14T20:44:20.547Z,54.40
2023-05-14T20:46:47.344Z,54.40
2023-05-14T20:49:13.900Z,54.20
2023-05-14T20:51:40.366Z,53.90
2023-05-14T20:54:06.832Z,54.30
2023-05-14T20:56:33.284Z,54.10
2023-05-14T20:58:59.767Z,54.00
2023-05-14T21:01:26.239Z,54.10
2023-05-14T21:03:52.840Z,54.00
2023-05-14T21:08:46.560Z,53.70
2023-05-14T21:11:13.053Z,53.80
2023-05-14T21:13:39.576Z,54.00
2023-05-14T21:16:06.078Z,54.00
2023-05-14T21:18:32.650Z,53.90
2023-05-14T21:20:59.206Z,53.60
2023-05-14T21:23:25.695Z,54.10
2023-05-14T21:25:52.201Z,54.10
2023-05-14T21:28:18.718Z,53.80
2023-05-14T21:30:45.198Z,53.40
2023-05-14T21:33:11.710Z,53.60
2023-05-14T21:35:38.244Z,53.60
2023-05-14T21:38:04.735Z,53.00
2023-05-14T21:40:31.228Z,53.30
2023-05-14T21:42:57.682Z,53.30
2023-05-14T21:45:24.255Z,53.40
2023-05-14T21:47:50.837Z,53.40
2023-05-14T21:50:17.422Z,53.60
2023-05-14T21:52:43.913Z,53.40
2023-05-14T21:55:10.431Z,53.90
2023-05-14T21:57:36.886Z,53.40
2023-05-14T22:00:03.396Z,53.40
2023-05-14T22:02:29.925Z,54.10
2023-05-14T22:04:56.469Z,53.40
2023-05-14T22:07:22.939Z,53.80
2023-05-14T22:09:50.278Z,53.00
2023-05-14T22:12:16.824Z,53.10
2023-05-14T22:14:43.290Z,53.20
2023-05-14T22:17:09.812Z,53.10
2023-05-14T22:22:11.320Z,53.10
2023-05-14T22:24:37.900Z,53.80
2023-05-14T22:27:04.392Z,53.70
2023-05-14T22:29:30.878Z,53.70
2023-05-14T22:31:57.549Z,53.30
2023-05-14T22:34:24.230Z,53.70
2023-05-14T22:36:50.703Z,53.70
2023-05-14T22:39:17.198Z,53.70
2023-05-14T22:41:43.720Z,53.10
2023-05-14T22:44:10.263Z,53.70
2023-05-14T22:46:36.798Z,53.60
2023-05-14T22:49:03.308Z,53.60
2023-05-14T22:51:29.812Z,53.50
2023-05-14T22:53:56.270Z,53.00
2023-05-14T23:04:52.609Z,53.10
2023-05-14T23:07:19.231Z,53.40
2023-05-14T23:12:38.903Z,53.10
2023-05-14T23:15:07.277Z,53.50
2023-05-14T23:17:55.665Z,53.50
2023-05-14T23:20:22.160Z,52.80
2023-05-14T23:22:56.350Z,53.50
2023-05-14T23:28:18.835Z,53.50
2023-05-14T23:36:28.177Z,53.40
2023-05-14T23:39:12.765Z,53.00
2023-05-14T23:41:49.848Z,53.10
2023-05-14T23:47:07.061Z,53.20
2023-05-14T23:49:37.231Z,53.20
2023-05-14T23:54:59.127Z,52.90
2023-05-14T23:57:31.474Z,52.90
2023-05-14T23:59:58.474Z,53.30
